AAL589 KMCO-KDCA
Flight info
| Callsign | AAL589 |
|---|---|
| Flight time | 1h 38m |
| Altitude | 39000 |
| Route | FATHE4 VIYAP Q87 RAYVO Q113 AARNN WAVES CAPSS4 |
| Aircraft | B38M/M-SDE1FGHILORVWXY/HB1 |
Departure
| Time | 2026-04-26 02:14 |
|---|---|
| Airport | Orlando International Airport (KMCO) |
Arrival
| Time | 2026-04-26 03:52 |
|---|---|
| Airport | Ronald Reagan Washington National Airport (KDCA) |
| Time | Latitude | Longitude | Altitude | Speed | Heading |
|---|---|---|---|---|---|
| 2026-04-26 01:13 | 28.42872 | -81.31621 | 97 ft | 0 kts | 128° |
| 2026-04-26 01:55 | 28.42881 | -81.31634 | 98 ft | 4 kts | 128° |
| 2026-04-26 01:55 | 28.42895 | -81.31654 | 97 ft | 2 kts | 129° |
| 2026-04-26 01:55 | 28.42914 | -81.31673 | 97 ft | 4 kts | 157° |
| 2026-04-26 01:55 | 28.42933 | -81.31674 | 97 ft | 4 kts | 229° |
| 2026-04-26 01:56 | 28.42940 | -81.31648 | 97 ft | 4 kts | 257° |
| 2026-04-26 01:56 | 28.42942 | -81.31641 | 97 ft | 0 kts | 257° |
| 2026-04-26 02:08 | 28.42942 | -81.31642 | 97 ft | 1 kts | 255° |
| 2026-04-26 02:09 | 28.42937 | -81.31690 | 99 ft | 13 kts | 274° |
| 2026-04-26 02:09 | 28.43000 | -81.31829 | 100 ft | 22 kts | 329° |
| 2026-04-26 02:09 | 28.43172 | -81.31840 | 101 ft | 30 kts | 359° |
| 2026-04-26 02:09 | 28.43424 | -81.31844 | 101 ft | 40 kts | 359° |
| 2026-04-26 02:10 | 28.43678 | -81.31846 | 102 ft | 36 kts | 0° |
| 2026-04-26 02:10 | 28.43896 | -81.31842 | 102 ft | 24 kts | 24° |
| 2026-04-26 02:10 | 28.43921 | -81.31684 | 109 ft | 21 kts | 88° |
| 2026-04-26 02:10 | 28.43924 | -81.31487 | 107 ft | 32 kts | 89° |
| 2026-04-26 02:11 | 28.43936 | -81.31204 | 111 ft | 37 kts | 86° |
| 2026-04-26 02:11 | 28.43942 | -81.30920 | 110 ft | 36 kts | 89° |
| 2026-04-26 02:11 | 28.43928 | -81.30633 | 108 ft | 38 kts | 94° |
| 2026-04-26 02:11 | 28.43910 | -81.30332 | 104 ft | 39 kts | 92° |
| 2026-04-26 02:12 | 28.43895 | -81.30019 | 101 ft | 40 kts | 97° |
| 2026-04-26 02:12 | 28.43700 | -81.29812 | 99 ft | 42 kts | 170° |
| 2026-04-26 02:12 | 28.43548 | -81.29739 | 97 ft | 19 kts | 84° |
| 2026-04-26 02:12 | 28.43550 | -81.29660 | 98 ft | 8 kts | 90° |
| 2026-04-26 02:13 | 28.43533 | -81.29594 | 99 ft | 11 kts | 140° |
| 2026-04-26 02:13 | 28.43310 | -81.29586 | 101 ft | 66 kts | 179° |
| 2026-04-26 02:13 | 28.42624 | -81.29579 | 98 ft | 129 kts | 179° |
| 2026-04-26 02:13 | 28.41561 | -81.29571 | 221 ft | 165 kts | 179° |
| 2026-04-26 02:14 | 28.40427 | -81.29512 | 947 ft | 158 kts | 175° |
| 2026-04-26 02:14 | 28.39286 | -81.29422 | 1434 ft | 176 kts | 175° |
| 2026-04-26 02:14 | 28.38075 | -81.29159 | 1944 ft | 185 kts | 149° |
| 2026-04-26 02:14 | 28.36958 | -81.28304 | 2366 ft | 204 kts | 146° |
| 2026-04-26 02:15 | 28.35707 | -81.27372 | 2756 ft | 225 kts | 142° |
| 2026-04-26 02:15 | 28.34756 | -81.25921 | 3328 ft | 234 kts | 110° |
| 2026-04-26 02:15 | 28.34610 | -81.24090 | 4037 ft | 246 kts | 82° |
| 2026-04-26 02:15 | 28.35298 | -81.22243 | 4480 ft | 267 kts | 53° |
| 2026-04-26 02:16 | 28.36758 | -81.20885 | 5017 ft | 278 kts | 24° |
| 2026-04-26 02:16 | 28.38636 | -81.20421 | 5784 ft | 279 kts | 357° |
| 2026-04-26 02:16 | 28.40551 | -81.20802 | 6531 ft | 280 kts | 343° |
| 2026-04-26 02:16 | 28.42438 | -81.21377 | 7293 ft | 282 kts | 343° |
| 2026-04-26 02:17 | 28.44344 | -81.21961 | 8004 ft | 285 kts | 343° |
| 2026-04-26 02:17 | 28.46261 | -81.22543 | 8719 ft | 287 kts | 343° |
| 2026-04-26 02:17 | 28.48209 | -81.23131 | 9430 ft | 290 kts | 343° |
| 2026-04-26 02:17 | 28.50165 | -81.23720 | 10147 ft | 292 kts | 343° |
| 2026-04-26 02:18 | 28.52199 | -81.24242 | 10516 ft | 310 kts | 352° |
| 2026-04-26 02:18 | 28.54429 | -81.24384 | 10718 ft | 330 kts | 355° |
| 2026-04-26 02:18 | 28.55979 | -81.24477 | 10827 ft | 342 kts | 355° |
| 2026-04-26 02:18 | 28.58408 | -81.24632 | 11080 ft | 356 kts | 355° |
| 2026-04-26 02:19 | 28.61769 | -81.24856 | 11623 ft | 365 kts | 354° |
| 2026-04-26 02:19 | 28.63454 | -81.24970 | 12027 ft | 366 kts | 354° |
| 2026-04-26 02:19 | 28.66012 | -81.25145 | 12633 ft | 368 kts | 354° |
| 2026-04-26 02:19 | 28.68581 | -81.25321 | 13236 ft | 371 kts | 354° |
| 2026-04-26 02:20 | 28.72022 | -81.25559 | 14050 ft | 376 kts | 354° |
| 2026-04-26 02:20 | 28.73791 | -81.25682 | 14470 ft | 378 kts | 354° |
| 2026-04-26 02:20 | 28.76432 | -81.25865 | 15091 ft | 382 kts | 354° |
| 2026-04-26 02:20 | 28.79091 | -81.26049 | 15716 ft | 385 kts | 354° |
| 2026-04-26 02:21 | 28.81784 | -81.26236 | 16296 ft | 388 kts | 354° |
| 2026-04-26 02:21 | 28.84489 | -81.26424 | 16863 ft | 392 kts | 354° |
| 2026-04-26 02:21 | 28.87185 | -81.26611 | 17421 ft | 395 kts | 355° |
| 2026-04-26 02:21 | 28.89937 | -81.26802 | 17924 ft | 398 kts | 355° |
| 2026-04-26 02:22 | 28.92714 | -81.26996 | 18419 ft | 401 kts | 355° |
| 2026-04-26 02:22 | 28.95517 | -81.27191 | 18901 ft | 404 kts | 355° |
| 2026-04-26 02:22 | 28.98330 | -81.27387 | 19359 ft | 407 kts | 355° |
| 2026-04-26 02:22 | 29.01171 | -81.27585 | 19796 ft | 410 kts | 355° |
| 2026-04-26 02:23 | 29.04034 | -81.27785 | 20226 ft | 413 kts | 354° |
| 2026-04-26 02:23 | 29.06916 | -81.27986 | 20650 ft | 416 kts | 354° |
| 2026-04-26 02:23 | 29.09817 | -81.28188 | 21085 ft | 419 kts | 354° |
| 2026-04-26 02:23 | 29.12739 | -81.28393 | 21488 ft | 422 kts | 354° |
| 2026-04-26 02:24 | 29.15683 | -81.28598 | 21908 ft | 425 kts | 354° |
| 2026-04-26 02:24 | 29.18648 | -81.28806 | 22327 ft | 428 kts | 354° |
| 2026-04-26 02:24 | 29.21626 | -81.29014 | 22727 ft | 431 kts | 354° |
| 2026-04-26 02:24 | 29.24635 | -81.29225 | 23126 ft | 435 kts | 354° |
| 2026-04-26 02:25 | 29.27667 | -81.29437 | 23521 ft | 438 kts | 354° |
| 2026-04-26 02:25 | 29.30715 | -81.29651 | 23928 ft | 441 kts | 354° |
| 2026-04-26 02:25 | 29.33786 | -81.29866 | 24320 ft | 443 kts | 354° |
| 2026-04-26 02:25 | 29.36873 | -81.30083 | 24742 ft | 446 kts | 354° |
| 2026-04-26 02:26 | 29.39935 | -81.30298 | 25176 ft | 448 kts | 354° |
| 2026-04-26 02:26 | 29.43060 | -81.30517 | 25604 ft | 450 kts | 354° |
| 2026-04-26 02:26 | 29.46192 | -81.30738 | 26030 ft | 452 kts | 354° |
| 2026-04-26 02:26 | 29.49341 | -81.30959 | 26441 ft | 454 kts | 354° |
| 2026-04-26 02:27 | 29.52503 | -81.31182 | 26843 ft | 456 kts | 354° |
| 2026-04-26 02:27 | 29.55688 | -81.31406 | 27226 ft | 459 kts | 354° |
| 2026-04-26 02:27 | 29.58885 | -81.31632 | 27608 ft | 461 kts | 354° |
| 2026-04-26 02:27 | 29.62094 | -81.31858 | 27985 ft | 463 kts | 354° |
| 2026-04-26 02:28 | 29.65324 | -81.32086 | 28338 ft | 465 kts | 354° |
| 2026-04-26 02:28 | 29.68558 | -81.32314 | 28687 ft | 467 kts | 354° |
| 2026-04-26 02:28 | 29.71812 | -81.32544 | 29048 ft | 469 kts | 354° |
| 2026-04-26 02:28 | 29.75031 | -81.32772 | 29462 ft | 469 kts | 354° |
| 2026-04-26 02:29 | 29.78278 | -81.33001 | 29942 ft | 468 kts | 354° |
| 2026-04-26 02:29 | 29.81512 | -81.33230 | 30452 ft | 465 kts | 354° |
| 2026-04-26 02:29 | 29.84737 | -81.33459 | 30922 ft | 464 kts | 354° |
| 2026-04-26 02:29 | 29.87958 | -81.33688 | 31354 ft | 463 kts | 354° |
| 2026-04-26 02:30 | 29.91167 | -81.33916 | 31795 ft | 462 kts | 354° |
| 2026-04-26 02:30 | 29.94372 | -81.34143 | 32233 ft | 461 kts | 354° |
| 2026-04-26 02:30 | 29.97570 | -81.34370 | 32673 ft | 459 kts | 353° |
| 2026-04-26 02:30 | 30.00762 | -81.34597 | 33092 ft | 458 kts | 353° |
| 2026-04-26 02:31 | 30.03942 | -81.34823 | 33501 ft | 457 kts | 353° |
| 2026-04-26 02:31 | 30.07122 | -81.35049 | 33888 ft | 457 kts | 352° |
| 2026-04-26 02:31 | 30.10293 | -81.35275 | 34293 ft | 456 kts | 352° |
| 2026-04-26 02:31 | 30.13450 | -81.35500 | 34694 ft | 454 kts | 352° |
| 2026-04-26 02:32 | 30.16606 | -81.35725 | 35078 ft | 453 kts | 352° |
| 2026-04-26 02:32 | 30.19750 | -81.35949 | 35443 ft | 453 kts | 352° |
| 2026-04-26 02:32 | 30.22897 | -81.36174 | 35800 ft | 452 kts | 353° |
| 2026-04-26 02:32 | 30.26032 | -81.36397 | 36136 ft | 451 kts | 353° |
| 2026-04-26 02:33 | 30.29161 | -81.36622 | 36444 ft | 450 kts | 353° |
| 2026-04-26 02:33 | 30.32247 | -81.36842 | 36735 ft | 450 kts | 353° |
| 2026-04-26 02:33 | 30.35362 | -81.37065 | 37088 ft | 447 kts | 353° |
| 2026-04-26 02:33 | 30.38454 | -81.37287 | 37496 ft | 442 kts | 353° |
| 2026-04-26 02:34 | 30.41519 | -81.37506 | 37843 ft | 440 kts | 353° |
| 2026-04-26 02:34 | 30.44573 | -81.37725 | 38102 ft | 439 kts | 353° |
| 2026-04-26 02:34 | 30.47629 | -81.37945 | 38321 ft | 439 kts | 353° |
| 2026-04-26 02:34 | 30.50678 | -81.38164 | 38534 ft | 439 kts | 353° |
| 2026-04-26 02:35 | 30.53727 | -81.38383 | 38756 ft | 439 kts | 353° |
| 2026-04-26 02:35 | 30.56777 | -81.38602 | 38916 ft | 439 kts | 353° |
| 2026-04-26 02:35 | 30.59836 | -81.38823 | 38939 ft | 442 kts | 353° |
| 2026-04-26 02:36 | 30.65976 | -81.39265 | 38942 ft | 441 kts | 353° |
| 2026-04-26 02:36 | 30.72074 | -81.39704 | 38947 ft | 442 kts | 353° |
| 2026-04-26 02:37 | 30.78210 | -81.40147 | 38943 ft | 442 kts | 353° |
| 2026-04-26 02:37 | 30.84351 | -81.40591 | 38937 ft | 441 kts | 353° |
| 2026-04-26 02:38 | 30.90494 | -81.41036 | 38937 ft | 442 kts | 352° |
| 2026-04-26 02:38 | 30.96636 | -81.41481 | 38925 ft | 442 kts | 352° |
| 2026-04-26 02:39 | 31.02744 | -81.41924 | 38931 ft | 442 kts | 352° |
| 2026-04-26 02:39 | 31.08879 | -81.42370 | 38925 ft | 442 kts | 352° |
| 2026-04-26 02:40 | 31.15026 | -81.42817 | 38915 ft | 442 kts | 352° |
| 2026-04-26 02:40 | 31.21167 | -81.43265 | 38921 ft | 442 kts | 352° |
| 2026-04-26 02:40 | 31.24256 | -81.43211 | 38911 ft | 449 kts | 5° |
| 2026-04-26 02:41 | 31.27287 | -81.42212 | 38940 ft | 457 kts | 18° |
| 2026-04-26 02:41 | 31.33157 | -81.39211 | 38933 ft | 461 kts | 19° |
| 2026-04-26 02:42 | 31.39015 | -81.36088 | 38937 ft | 462 kts | 20° |
| 2026-04-26 02:42 | 31.44856 | -81.32923 | 38923 ft | 463 kts | 20° |
| 2026-04-26 02:43 | 31.53620 | -81.28158 | 38917 ft | 463 kts | 20° |
| 2026-04-26 02:43 | 31.59460 | -81.24977 | 38918 ft | 463 kts | 20° |
| 2026-04-26 02:44 | 31.65266 | -81.21810 | 38913 ft | 463 kts | 20° |
| 2026-04-26 02:44 | 31.70982 | -81.18263 | 38913 ft | 466 kts | 25° |
| 2026-04-26 02:45 | 31.76588 | -81.14412 | 38908 ft | 467 kts | 25° |
| 2026-04-26 02:45 | 31.82180 | -81.10546 | 38900 ft | 466 kts | 25° |
| 2026-04-26 02:46 | 31.87774 | -81.06672 | 38897 ft | 466 kts | 26° |
| 2026-04-26 02:46 | 31.93373 | -81.02789 | 38897 ft | 466 kts | 26° |
| 2026-04-26 02:47 | 31.98954 | -80.98912 | 38894 ft | 465 kts | 26° |
| 2026-04-26 02:47 | 32.04539 | -80.95030 | 38896 ft | 468 kts | 25° |
| 2026-04-26 02:48 | 32.10125 | -80.91137 | 38909 ft | 469 kts | 25° |
| 2026-04-26 02:48 | 32.15747 | -80.87216 | 38916 ft | 469 kts | 25° |
| 2026-04-26 02:49 | 32.21361 | -80.83294 | 38927 ft | 469 kts | 25° |
| 2026-04-26 02:49 | 32.26979 | -80.79364 | 38934 ft | 468 kts | 25° |
| 2026-04-26 02:50 | 32.32580 | -80.75440 | 38934 ft | 468 kts | 26° |
| 2026-04-26 02:50 | 32.38182 | -80.71510 | 38925 ft | 468 kts | 26° |
| 2026-04-26 02:51 | 32.43776 | -80.67580 | 38913 ft | 468 kts | 26° |
| 2026-04-26 02:51 | 32.49372 | -80.63642 | 38916 ft | 468 kts | 26° |
| 2026-04-26 02:52 | 32.54971 | -80.59696 | 38918 ft | 468 kts | 26° |
| 2026-04-26 02:52 | 32.60538 | -80.55768 | 38919 ft | 468 kts | 26° |
| 2026-04-26 02:53 | 32.66132 | -80.51813 | 38929 ft | 468 kts | 26° |
| 2026-04-26 02:53 | 32.71725 | -80.47856 | 38931 ft | 468 kts | 26° |
| 2026-04-26 02:54 | 32.77321 | -80.43889 | 38931 ft | 468 kts | 25° |
| 2026-04-26 02:54 | 32.82881 | -80.39942 | 38935 ft | 468 kts | 26° |
| 2026-04-26 02:55 | 32.88479 | -80.35962 | 38932 ft | 469 kts | 25° |
| 2026-04-26 02:55 | 32.94097 | -80.31962 | 38929 ft | 469 kts | 25° |
| 2026-04-26 02:56 | 32.99698 | -80.27968 | 38928 ft | 469 kts | 25° |
| 2026-04-26 02:56 | 33.05299 | -80.23969 | 38923 ft | 470 kts | 25° |
| 2026-04-26 02:57 | 33.10908 | -80.19957 | 38923 ft | 470 kts | 25° |
| 2026-04-26 02:57 | 33.16516 | -80.15940 | 38934 ft | 470 kts | 25° |
| 2026-04-26 02:58 | 33.22098 | -80.11935 | 38941 ft | 471 kts | 25° |
| 2026-04-26 02:58 | 33.27719 | -80.07897 | 38942 ft | 471 kts | 25° |
| 2026-04-26 02:59 | 33.33335 | -80.03856 | 38944 ft | 472 kts | 25° |
| 2026-04-26 02:59 | 33.38953 | -79.99808 | 38945 ft | 472 kts | 25° |
| 2026-04-26 03:00 | 33.44575 | -79.95751 | 38942 ft | 469 kts | 25° |
| 2026-04-26 03:00 | 33.50167 | -79.91708 | 38945 ft | 469 kts | 25° |
| 2026-04-26 03:01 | 33.55763 | -79.87657 | 38945 ft | 470 kts | 25° |
| 2026-04-26 03:01 | 33.61364 | -79.83595 | 38944 ft | 470 kts | 24° |
| 2026-04-26 03:02 | 33.66963 | -79.79530 | 38945 ft | 470 kts | 24° |
| 2026-04-26 03:02 | 33.72526 | -79.75484 | 38945 ft | 471 kts | 24° |
| 2026-04-26 03:03 | 33.78132 | -79.71401 | 38945 ft | 471 kts | 24° |
| 2026-04-26 03:03 | 33.83737 | -79.67312 | 38944 ft | 471 kts | 24° |
| 2026-04-26 03:04 | 33.89337 | -79.63220 | 38941 ft | 473 kts | 26° |
| 2026-04-26 03:04 | 33.95013 | -79.59067 | 38958 ft | 480 kts | 26° |
| 2026-04-26 03:05 | 34.00752 | -79.54860 | 38962 ft | 483 kts | 26° |
| 2026-04-26 03:05 | 34.06498 | -79.50642 | 38962 ft | 485 kts | 26° |
| 2026-04-26 03:06 | 34.12228 | -79.46428 | 38965 ft | 485 kts | 26° |
| 2026-04-26 03:06 | 34.17989 | -79.42185 | 38971 ft | 485 kts | 26° |
| 2026-04-26 03:07 | 34.23748 | -79.37938 | 38972 ft | 485 kts | 26° |
| 2026-04-26 03:07 | 34.29513 | -79.33681 | 38972 ft | 485 kts | 26° |
| 2026-04-26 03:08 | 34.35275 | -79.29417 | 38971 ft | 485 kts | 26° |
| 2026-04-26 03:08 | 34.40061 | -79.25871 | 38971 ft | 485 kts | 26° |
| 2026-04-26 03:09 | 34.45970 | -79.22056 | 38966 ft | 481 kts | 20° |
| 2026-04-26 03:09 | 34.51970 | -79.18437 | 38961 ft | 482 kts | 21° |
| 2026-04-26 03:10 | 34.57960 | -79.14770 | 38963 ft | 482 kts | 21° |
| 2026-04-26 03:10 | 34.63943 | -79.11097 | 38961 ft | 482 kts | 21° |
| 2026-04-26 03:11 | 34.69933 | -79.07414 | 38962 ft | 482 kts | 21° |
| 2026-04-26 03:11 | 34.75883 | -79.03749 | 38963 ft | 483 kts | 21° |
| 2026-04-26 03:12 | 34.81872 | -79.00053 | 38958 ft | 483 kts | 21° |
| 2026-04-26 03:12 | 34.87879 | -78.96342 | 38950 ft | 483 kts | 21° |
| 2026-04-26 03:13 | 34.93877 | -78.92629 | 38944 ft | 483 kts | 21° |
| 2026-04-26 03:13 | 34.99882 | -78.88906 | 38944 ft | 484 kts | 21° |
| 2026-04-26 03:14 | 35.05882 | -78.85180 | 38944 ft | 484 kts | 21° |
| 2026-04-26 03:14 | 35.11891 | -78.81442 | 38934 ft | 485 kts | 21° |
| 2026-04-26 03:15 | 35.17910 | -78.77692 | 38923 ft | 486 kts | 21° |
| 2026-04-26 03:15 | 35.23935 | -78.73932 | 38931 ft | 486 kts | 21° |
| 2026-04-26 03:16 | 35.29962 | -78.70164 | 38946 ft | 486 kts | 21° |
| 2026-04-26 03:16 | 35.35948 | -78.66414 | 38956 ft | 487 kts | 21° |
| 2026-04-26 03:17 | 35.41987 | -78.62626 | 38962 ft | 487 kts | 21° |
| 2026-04-26 03:17 | 35.48024 | -78.58833 | 38960 ft | 487 kts | 21° |
| 2026-04-26 03:18 | 35.54063 | -78.55031 | 38952 ft | 488 kts | 21° |
| 2026-04-26 03:18 | 35.60106 | -78.51221 | 38950 ft | 488 kts | 21° |
| 2026-04-26 03:19 | 35.66145 | -78.47409 | 38944 ft | 488 kts | 21° |
| 2026-04-26 03:19 | 35.72191 | -78.43585 | 38947 ft | 489 kts | 21° |
| 2026-04-26 03:20 | 35.78202 | -78.39792 | 38953 ft | 488 kts | 20° |
| 2026-04-26 03:20 | 35.84251 | -78.35968 | 38951 ft | 488 kts | 21° |
| 2026-04-26 03:21 | 35.90298 | -78.32139 | 38956 ft | 488 kts | 21° |
| 2026-04-26 03:21 | 35.96342 | -78.28306 | 38962 ft | 488 kts | 20° |
| 2026-04-26 03:22 | 36.02394 | -78.24460 | 38964 ft | 489 kts | 21° |
| 2026-04-26 03:22 | 36.08442 | -78.20611 | 38960 ft | 489 kts | 21° |
| 2026-04-26 03:23 | 36.14489 | -78.16755 | 38961 ft | 489 kts | 21° |
| 2026-04-26 03:23 | 36.20544 | -78.12888 | 38962 ft | 489 kts | 21° |
| 2026-04-26 03:24 | 36.26549 | -78.09045 | 38961 ft | 490 kts | 21° |
| 2026-04-26 03:24 | 36.32605 | -78.05164 | 38961 ft | 490 kts | 21° |
| 2026-04-26 03:25 | 36.38707 | -78.01429 | 38956 ft | 483 kts | 13° |
| 2026-04-26 03:25 | 36.44994 | -77.98480 | 38961 ft | 483 kts | 14° |
| 2026-04-26 03:26 | 36.51285 | -77.95549 | 38964 ft | 483 kts | 13° |
| 2026-04-26 03:26 | 36.57579 | -77.92616 | 38969 ft | 483 kts | 13° |
| 2026-04-26 03:27 | 36.63877 | -77.89677 | 38971 ft | 483 kts | 14° |
| 2026-04-26 03:27 | 36.70167 | -77.86736 | 38972 ft | 484 kts | 14° |
| 2026-04-26 03:28 | 36.76476 | -77.83781 | 38953 ft | 484 kts | 14° |
| 2026-04-26 03:28 | 36.82755 | -77.80835 | 38940 ft | 484 kts | 14° |
| 2026-04-26 03:29 | 36.89051 | -77.77874 | 38706 ft | 479 kts | 14° |
| 2026-04-26 03:29 | 36.92161 | -77.76410 | 38213 ft | 473 kts | 14° |
| 2026-04-26 03:29 | 36.95245 | -77.74958 | 37126 ft | 475 kts | 14° |
| 2026-04-26 03:30 | 36.98342 | -77.73497 | 36105 ft | 475 kts | 15° |
| 2026-04-26 03:30 | 37.01426 | -77.72042 | 35099 ft | 473 kts | 15° |
| 2026-04-26 03:30 | 37.04523 | -77.70580 | 34110 ft | 479 kts | 15° |
| 2026-04-26 03:30 | 37.07679 | -77.69088 | 33188 ft | 487 kts | 16° |
| 2026-04-26 03:31 | 37.10857 | -77.67585 | 32398 ft | 489 kts | 16° |
| 2026-04-26 03:31 | 37.14043 | -77.66076 | 31593 ft | 490 kts | 16° |
| 2026-04-26 03:31 | 37.17191 | -77.64584 | 30701 ft | 490 kts | 16° |
| 2026-04-26 03:31 | 37.20370 | -77.63076 | 29772 ft | 489 kts | 17° |
| 2026-04-26 03:32 | 37.23547 | -77.61567 | 28777 ft | 488 kts | 17° |
| 2026-04-26 03:32 | 37.26726 | -77.60055 | 27766 ft | 489 kts | 17° |
| 2026-04-26 03:32 | 37.29926 | -77.58534 | 26936 ft | 493 kts | 17° |
| 2026-04-26 03:32 | 37.33131 | -77.57007 | 26161 ft | 494 kts | 18° |
| 2026-04-26 03:33 | 37.36316 | -77.55489 | 25383 ft | 492 kts | 18° |
| 2026-04-26 03:33 | 37.39525 | -77.53958 | 24599 ft | 487 kts | 18° |
| 2026-04-26 03:33 | 37.42687 | -77.52449 | 23822 ft | 482 kts | 18° |
| 2026-04-26 03:33 | 37.45801 | -77.50961 | 23079 ft | 476 kts | 18° |
| 2026-04-26 03:34 | 37.48856 | -77.49500 | 22762 ft | 462 kts | 18° |
| 2026-04-26 03:34 | 37.51782 | -77.48099 | 22478 ft | 449 kts | 18° |
| 2026-04-26 03:34 | 37.54661 | -77.46721 | 22245 ft | 437 kts | 18° |
| 2026-04-26 03:34 | 37.57463 | -77.45378 | 22014 ft | 425 kts | 18° |
| 2026-04-26 03:35 | 37.60255 | -77.44335 | 21654 ft | 414 kts | 9° |
| 2026-04-26 03:35 | 37.63027 | -77.43532 | 21320 ft | 407 kts | 10° |
| 2026-04-26 03:35 | 37.65772 | -77.42691 | 20987 ft | 401 kts | 11° |
| 2026-04-26 03:35 | 37.68467 | -77.41846 | 20637 ft | 395 kts | 11° |
| 2026-04-26 03:36 | 37.71115 | -77.41005 | 20297 ft | 391 kts | 11° |
| 2026-04-26 03:36 | 37.73752 | -77.40164 | 19958 ft | 391 kts | 11° |
| 2026-04-26 03:36 | 37.76387 | -77.39326 | 19609 ft | 389 kts | 11° |
| 2026-04-26 03:36 | 37.79029 | -77.38513 | 19256 ft | 386 kts | 11° |
| 2026-04-26 03:37 | 37.81624 | -77.37713 | 18934 ft | 384 kts | 11° |
| 2026-04-26 03:37 | 37.84178 | -77.36923 | 18612 ft | 381 kts | 11° |
| 2026-04-26 03:37 | 37.86743 | -77.36129 | 18275 ft | 378 kts | 11° |
| 2026-04-26 03:37 | 37.89292 | -77.35341 | 17946 ft | 376 kts | 10° |
| 2026-04-26 03:38 | 37.91821 | -77.34564 | 17600 ft | 373 kts | 10° |
| 2026-04-26 03:38 | 37.94340 | -77.33789 | 17302 ft | 371 kts | 10° |
| 2026-04-26 03:38 | 37.96841 | -77.33019 | 16991 ft | 369 kts | 10° |
| 2026-04-26 03:38 | 37.99337 | -77.32250 | 16676 ft | 367 kts | 10° |
| 2026-04-26 03:39 | 38.01812 | -77.31487 | 16364 ft | 366 kts | 10° |
| 2026-04-26 03:39 | 38.04281 | -77.30724 | 16047 ft | 363 kts | 10° |
| 2026-04-26 03:39 | 38.06730 | -77.29968 | 15691 ft | 361 kts | 10° |
| 2026-04-26 03:39 | 38.09194 | -77.29195 | 15020 ft | 367 kts | 11° |
| 2026-04-26 03:40 | 38.11679 | -77.28415 | 14463 ft | 368 kts | 11° |
| 2026-04-26 03:40 | 38.14128 | -77.27647 | 13901 ft | 369 kts | 11° |
| 2026-04-26 03:40 | 38.16625 | -77.26863 | 13295 ft | 370 kts | 11° |
| 2026-04-26 03:40 | 38.19136 | -77.26074 | 12680 ft | 372 kts | 11° |
| 2026-04-26 03:41 | 38.21663 | -77.25273 | 11938 ft | 376 kts | 11° |
| 2026-04-26 03:41 | 38.24215 | -77.24463 | 11226 ft | 379 kts | 11° |
| 2026-04-26 03:41 | 38.26777 | -77.23650 | 10565 ft | 379 kts | 11° |
| 2026-04-26 03:41 | 38.29347 | -77.22833 | 9882 ft | 381 kts | 11° |
| 2026-04-26 03:42 | 38.31889 | -77.22024 | 9206 ft | 371 kts | 11° |
| 2026-04-26 03:42 | 38.34224 | -77.20830 | 8894 ft | 353 kts | 31° |
| 2026-04-26 03:42 | 38.36062 | -77.18846 | 8381 ft | 342 kts | 41° |
| 2026-04-26 03:42 | 38.37809 | -77.16837 | 7736 ft | 335 kts | 40° |
| 2026-04-26 03:43 | 38.39532 | -77.14880 | 7150 ft | 327 kts | 40° |
| 2026-04-26 03:43 | 38.41200 | -77.12994 | 6750 ft | 314 kts | 40° |
| 2026-04-26 03:43 | 38.42798 | -77.11187 | 6429 ft | 300 kts | 40° |
| 2026-04-26 03:43 | 38.44322 | -77.09467 | 6131 ft | 285 kts | 40° |
| 2026-04-26 03:44 | 38.45790 | -77.07809 | 5824 ft | 276 kts | 40° |
| 2026-04-26 03:44 | 38.47191 | -77.06226 | 5542 ft | 268 kts | 41° |
| 2026-04-26 03:44 | 38.48571 | -77.04671 | 5317 ft | 262 kts | 41° |
| 2026-04-26 03:44 | 38.49931 | -77.03126 | 5022 ft | 261 kts | 41° |
| 2026-04-26 03:45 | 38.51332 | -77.01685 | 4690 ft | 258 kts | 28° |
| 2026-04-26 03:45 | 38.53044 | -77.01134 | 4455 ft | 253 kts | 0° |
| 2026-04-26 03:45 | 38.54784 | -77.01208 | 4312 ft | 247 kts | 358° |
| 2026-04-26 03:45 | 38.56475 | -77.01299 | 4160 ft | 241 kts | 357° |
| 2026-04-26 03:46 | 38.58118 | -77.01325 | 3985 ft | 232 kts | 1° |
| 2026-04-26 03:46 | 38.59703 | -77.01343 | 3880 ft | 224 kts | 359° |
| 2026-04-26 03:46 | 38.61233 | -77.01430 | 3770 ft | 215 kts | 358° |
| 2026-04-26 03:47 | 38.64190 | -77.01677 | 3553 ft | 214 kts | 357° |
| 2026-04-26 03:47 | 38.65633 | -77.01812 | 3467 ft | 202 kts | 357° |
| 2026-04-26 03:47 | 38.67001 | -77.01949 | 3249 ft | 193 kts | 357° |
| 2026-04-26 03:47 | 38.68317 | -77.02077 | 3028 ft | 186 kts | 358° |
| 2026-04-26 03:48 | 38.69573 | -77.02211 | 2811 ft | 182 kts | 358° |
| 2026-04-26 03:48 | 38.70822 | -77.02335 | 2584 ft | 178 kts | 357° |
| 2026-04-26 03:48 | 38.72042 | -77.02455 | 2364 ft | 175 kts | 358° |
| 2026-04-26 03:48 | 38.73236 | -77.02574 | 2171 ft | 170 kts | 356° |
| 2026-04-26 03:49 | 38.74413 | -77.02689 | 1946 ft | 168 kts | 357° |
| 2026-04-26 03:49 | 38.75579 | -77.02807 | 1718 ft | 167 kts | 358° |
| 2026-04-26 03:49 | 38.76730 | -77.02923 | 1498 ft | 164 kts | 358° |
| 2026-04-26 03:49 | 38.77825 | -77.03038 | 1310 ft | 152 kts | 358° |
| 2026-04-26 03:50 | 38.78847 | -77.03141 | 1110 ft | 143 kts | 358° |
| 2026-04-26 03:50 | 38.79815 | -77.03236 | 931 ft | 136 kts | 359° |
| 2026-04-26 03:50 | 38.80763 | -77.03331 | 720 ft | 136 kts | 358° |
| 2026-04-26 03:50 | 38.81165 | -77.03375 | 663 ft | 136 kts | 358° |
| 2026-04-26 03:51 | 38.82108 | -77.03482 | 520 ft | 133 kts | 359° |
| 2026-04-26 03:51 | 38.83022 | -77.03555 | 334 ft | 133 kts | 359° |
| 2026-04-26 03:51 | 38.83930 | -77.03653 | 124 ft | 132 kts | 358° |
| 2026-04-26 03:51 | 38.84811 | -77.03739 | 27 ft | 106 kts | 355° |
| 2026-04-26 03:52 | 38.85292 | -77.03788 | 26 ft | 42 kts | 354° |
| 2026-04-26 03:52 | 38.85507 | -77.03857 | 28 ft | 17 kts | 311° |
| 2026-04-26 03:52 | 38.85557 | -77.03937 | 27 ft | 6 kts | 295° |
| 2026-04-26 03:52 | 38.85559 | -77.03985 | 27 ft | 2 kts | 263° |
| 2026-04-26 03:53 | 38.85561 | -77.04015 | 27 ft | 5 kts | 283° |
| 2026-04-26 03:53 | 38.85565 | -77.04032 | 27 ft | 2 kts | 289° |
| 2026-04-26 03:53 | 38.85573 | -77.04059 | 27 ft | 3 kts | 292° |
| 2026-04-26 03:53 | 38.85585 | -77.04094 | 27 ft | 5 kts | 293° |
| 2026-04-26 03:54 | 38.85594 | -77.04124 | 27 ft | 2 kts | 290° |
| 2026-04-26 03:54 | 38.85598 | -77.04135 | 27 ft | 2 kts | 292° |